Terminal Aerodrome Forecast
Issued by NWS Shreveport, LA

Home | Current Version | Previous Version | Text Only | Print | Product List | Glossary On
Versions: 1 2 3 4 5 6 7 8 9 10 11 12 13 14 15 16 17 18 19 20
688
FTUS44 KSHV 270539
TAFLFK
TAF
KLFK 270539Z 2706/2806 16004KT P6SM SKC
     FM271100 VRB03KT 6SM BR SCT003 SCT012
      TEMPO 2712/2715 3SM BR BKN004
     FM271500 24006KT P6SM SCT015
     FM271600 24006KT P6SM SCT025
     FM271800 22005KT P6SM SCT040
     FM280100 17004KT P6SM SKC=

USA.gov is the U.S. government's official web portal to all federal, state and local government web resources and services.